Peru, New York
Current Conditions -  °F | °C
As of 4:53 PM on Monday 26 Jan 2015 (Local Time) from KPBG Reporting Station
Broken Clouds Broken Clouds  
Wind Chill: -5°   Ceiling: 12000
Heat Index:   Visibility: 10mi
Dew Point: -3°   Wind: 9mph
Humidity: 61%   Direction: 360°N
Pressure: 30.17"   Gusts: NA
Location:  44.58°N, 73.55°W
Report Text: KPBG 262153Z AUTO 36008KT 10SM BKN120 M13/M19 A3017 RMK AO2 SLP222 T11331194
Loading
Personal Weather Stations






























Interactive Weather Map New forecast layout! Learn more

10-Day Weather Forecast

Advertisements
Track Severe Weather on mobile